createdAt,value
2022-11-02T00:00:34.972Z,62.60
2022-11-02T00:03:02.926Z,62.96
2022-11-02T00:05:31.185Z,63.04
2022-11-02T00:07:58.303Z,63.31
2022-11-02T00:10:25.818Z,63.53
2022-11-02T00:12:53.420Z,63.67
2022-11-02T00:15:20.985Z,63.54
2022-11-02T00:17:51.238Z,63.69
2022-11-02T00:20:20.886Z,63.77
2022-11-02T00:22:51.032Z,63.78
2022-11-02T00:25:20.425Z,63.81
2022-11-02T00:27:47.514Z,64.13
2022-11-02T00:30:14.949Z,63.09
2022-11-02T00:32:42.306Z,63.17
2022-11-02T00:35:10.309Z,63.56
2022-11-02T00:37:37.978Z,63.59
2022-11-02T00:40:06.433Z,63.51
2022-11-02T00:42:33.607Z,63.78
2022-11-02T00:45:00.699Z,63.59
2022-11-02T00:47:27.763Z,63.69
2022-11-02T00:49:54.833Z,63.93
2022-11-02T00:52:21.894Z,63.05
2022-11-02T00:54:52.021Z,63.48
2022-11-02T00:57:19.727Z,63.87
2022-11-02T00:59:47.601Z,63.94
2022-11-02T01:02:17.174Z,64.11
2022-11-02T01:04:44.379Z,64.16
2022-11-02T01:07:12.062Z,64.32
2022-11-02T01:09:39.101Z,64.32
2022-11-02T01:12:06.515Z,64.19
2022-11-02T01:14:33.761Z,63.87
2022-11-02T01:17:00.861Z,64.02
2022-11-02T01:19:28.314Z,64.00
2022-11-02T01:21:57.109Z,64.18
2022-11-02T01:24:24.175Z,64.30
2022-11-02T01:26:52.806Z,64.45
2022-11-02T01:29:20.187Z,64.60
2022-11-02T01:31:48.554Z,63.93
2022-11-02T01:34:17.530Z,64.14
2022-11-02T01:36:45.822Z,63.92
2022-11-02T01:39:13.379Z,64.14
2022-11-02T01:41:41.534Z,63.85
2022-11-02T01:44:34.904Z,64.08
2022-11-02T01:47:27.319Z,64.39
2022-11-02T01:50:05.417Z,64.67
2022-11-02T01:52:38.740Z,64.71
2022-11-02T01:55:30.454Z,65.01
2022-11-02T01:58:02.118Z,65.06
2022-11-02T02:00:29.521Z,65.35
2022-11-02T02:03:10.829Z,64.80
2022-11-02T02:05:49.696Z,65.17
2022-11-02T02:08:23.694Z,64.85
2022-11-02T02:10:50.781Z,64.24
2022-11-02T02:13:19.131Z,64.16
2022-11-02T02:16:13.901Z,64.27
2022-11-02T02:18:55.805Z,64.46
2022-11-02T02:22:14.812Z,64.61
2022-11-02T02:25:08.069Z,64.48
2022-11-02T02:28:12.006Z,64.48
2022-11-02T02:30:51.722Z,64.71
2022-11-02T02:33:57.286Z,64.67
2022-11-02T02:36:58.819Z,64.64
2022-11-02T02:39:44.283Z,65.01
2022-11-02T02:42:20.165Z,64.87
2022-11-02T02:45:20.930Z,64.30
2022-11-02T02:48:03.507Z,64.66
2022-11-02T02:50:39.998Z,64.60
2022-11-02T02:53:08.334Z,64.89
2022-11-02T02:55:44.644Z,64.84
2022-11-02T02:58:35.821Z,64.63
2022-11-02T03:01:06.360Z,64.79
2022-11-02T03:03:35.396Z,65.03
2022-11-02T03:06:33.331Z,64.88
2022-11-02T03:09:19.886Z,65.08
2022-11-02T03:11:55.367Z,64.84
2022-11-02T03:15:06.897Z,64.83
2022-11-02T03:18:01.637Z,64.85
2022-11-02T03:20:31.928Z,64.61
2022-11-02T03:23:39.783Z,64.22
2022-11-02T03:26:31.216Z,64.07
2022-11-02T03:29:13.915Z,63.66
2022-11-02T03:32:10.505Z,63.85
2022-11-02T03:34:53.943Z,63.96
2022-11-02T03:37:35.321Z,64.10
2022-11-02T03:40:12.308Z,64.12
2022-11-02T03:42:44.435Z,64.30
2022-11-02T03:45:19.456Z,63.83
2022-11-02T03:47:55.074Z,63.88
2022-11-02T03:50:23.757Z,64.02
2022-11-02T03:53:01.556Z,63.47
2022-11-02T03:55:37.854Z,63.40
2022-11-02T03:58:05.321Z,63.06
2022-11-02T04:00:35.975Z,63.02
2022-11-02T04:03:08.155Z,62.84
2022-11-02T04:05:40.582Z,62.78
2022-11-02T04:08:35.153Z,62.82
2022-11-02T04:11:25.981Z,62.86
2022-11-02T04:14:14.924Z,62.96
2022-11-02T04:16:43.894Z,62.68
2022-11-02T04:19:28.536Z,62.93
2022-11-02T04:22:19.962Z,62.78
2022-11-02T04:25:09.867Z,62.76
2022-11-02T04:27:38.244Z,62.87
2022-11-02T04:30:05.914Z,63.02
2022-11-02T04:33:06.264Z,63.13
2022-11-02T04:35:39.917Z,63.69
2022-11-02T04:38:26.577Z,63.56
2022-11-02T04:41:15.814Z,63.51
2022-11-02T04:43:45.049Z,63.65
2022-11-02T04:46:13.659Z,63.66
2022-11-02T04:48:40.726Z,62.93
2022-11-02T04:51:07.771Z,62.80
2022-11-02T04:53:36.414Z,62.79
2022-11-02T04:56:04.061Z,63.03
2022-11-02T04:58:32.658Z,63.03
2022-11-02T05:01:09.402Z,62.92
2022-11-02T05:03:37.506Z,63.11
2022-11-02T05:06:04.952Z,63.09
2022-11-02T05:08:32.826Z,63.39
2022-11-02T05:11:00.218Z,63.64
2022-11-02T05:13:28.878Z,63.64
2022-11-02T05:16:00.015Z,63.60
2022-11-02T05:18:29.748Z,63.85
2022-11-02T05:21:00.271Z,63.77
2022-11-02T05:23:30.025Z,63.66
2022-11-02T05:26:09.131Z,63.72
2022-11-02T05:28:36.493Z,63.80
2022-11-02T05:31:05.634Z,63.88
2022-11-02T05:33:35.751Z,63.96
2022-11-02T05:36:10.262Z,63.89
2022-11-02T05:41:13.147Z,64.06
2022-11-02T05:43:41.659Z,63.71
2022-11-02T05:46:11.303Z,63.56
2022-11-02T05:48:38.412Z,63.67
2022-11-02T05:51:06.085Z,63.87
2022-11-02T05:53:37.304Z,63.69
2022-11-02T05:56:09.567Z,63.54
2022-11-02T05:58:36.968Z,63.49
2022-11-02T06:01:07.135Z,63.50
2022-11-02T06:03:34.974Z,63.54
2022-11-02T06:06:09.371Z,62.96
2022-11-02T06:08:38.768Z,63.02
2022-11-02T06:11:13.680Z,63.18
2022-11-02T06:13:42.258Z,63.19
2022-11-02T06:16:12.342Z,63.22
2022-11-02T06:18:39.651Z,62.96
2022-11-02T06:21:07.157Z,63.07
2022-11-02T06:23:34.897Z,62.98
2022-11-02T06:26:03.511Z,62.84
2022-11-02T06:28:31.075Z,62.67
2022-11-02T06:30:58.769Z,62.34
2022-11-02T06:33:26.249Z,61.91
2022-11-02T06:35:55.141Z,61.83
2022-11-02T06:38:23.101Z,61.32
2022-11-02T06:40:55.408Z,61.33
2022-11-02T06:43:23.235Z,61.35
2022-11-02T06:45:50.848Z,59.87
2022-11-02T06:48:17.903Z,59.61
2022-11-02T06:50:44.990Z,60.16
2022-11-02T06:53:12.030Z,59.69
2022-11-02T06:55:39.260Z,59.67
2022-11-02T06:58:06.482Z,59.91
2022-11-02T07:00:33.988Z,59.90
2022-11-02T07:03:04.941Z,60.18
2022-11-02T07:05:33.313Z,59.98
2022-11-02T07:08:00.606Z,60.32
2022-11-02T07:10:28.816Z,60.26
2022-11-02T07:12:57.609Z,60.18
2022-11-02T07:15:26.541Z,60.17
2022-11-02T07:17:54.126Z,60.42
2022-11-02T07:20:21.621Z,60.63
2022-11-02T07:22:56.922Z,60.60
2022-11-02T07:25:27.136Z,60.03
2022-11-02T07:27:55.170Z,60.21
2022-11-02T07:30:22.597Z,59.64
2022-11-02T07:32:49.664Z,59.81
2022-11-02T07:35:17.619Z,59.98
2022-11-02T07:37:45.204Z,59.15
2022-11-02T07:40:14.384Z,58.98
2022-11-02T07:42:46.617Z,58.62
2022-11-02T07:45:16.551Z,57.83
2022-11-02T07:47:47.709Z,57.54
2022-11-02T07:50:18.291Z,56.95
2022-11-02T07:52:51.899Z,56.52
2022-11-02T07:55:23.108Z,56.48
2022-11-02T07:58:13.719Z,55.38
2022-11-02T08:00:41.521Z,54.51
2022-11-02T08:03:11.602Z,54.13
2022-11-02T08:05:41.810Z,53.33
2022-11-02T08:08:17.646Z,52.40
2022-11-02T08:10:46.662Z,51.39
2022-11-02T08:13:18.029Z,50.79
2022-11-02T08:15:45.435Z,50.37
2022-11-02T08:18:23.621Z,49.88
2022-11-02T08:20:51.608Z,49.58
2022-11-02T08:23:20.988Z,49.55
2022-11-02T08:25:50.491Z,49.43
2022-11-02T08:28:25.206Z,49.08
2022-11-02T08:30:53.084Z,48.85
2022-11-02T08:33:21.100Z,48.49
2022-11-02T08:35:49.070Z,48.35
2022-11-02T08:38:17.007Z,48.13
2022-11-02T08:40:44.965Z,48.36
2022-11-02T08:43:14.526Z,47.87
2022-11-02T08:48:33.064Z,48.08
2022-11-02T08:51:00.113Z,47.42
2022-11-02T08:53:27.302Z,47.84
2022-11-02T08:55:58.719Z,47.79
2022-11-02T08:58:26.327Z,47.78
2022-11-02T09:00:54.856Z,47.66
2022-11-02T09:03:26.779Z,48.17
2022-11-02T09:06:00.411Z,47.79
2022-11-02T09:08:28.591Z,47.75
2022-11-02T09:11:01.243Z,47.37
2022-11-02T09:13:29.214Z,47.30
2022-11-02T09:15:58.532Z,47.57
2022-11-02T09:18:26.061Z,47.50
2022-11-02T09:20:53.145Z,47.58
2022-11-02T09:23:21.998Z,46.74
2022-11-02T09:25:50.146Z,46.39
2022-11-02T09:28:17.438Z,46.70
2022-11-02T09:30:44.566Z,46.66
2022-11-02T09:33:13.465Z,46.71
2022-11-02T09:35:47.106Z,46.72
2022-11-02T09:38:14.954Z,46.43
2022-11-02T09:41:00.360Z,45.62
2022-11-02T09:43:57.997Z,45.26
2022-11-02T09:46:43.578Z,46.05
2022-11-02T09:49:23.669Z,45.83
2022-11-02T09:51:54.270Z,45.30
2022-11-02T09:54:46.018Z,44.85
2022-11-02T09:57:28.437Z,45.22
2022-11-02T09:59:56.648Z,45.57
2022-11-02T10:03:26.498Z,45.22
2022-11-02T10:06:15.591Z,44.29
2022-11-02T10:09:29.331Z,45.33
2022-11-02T10:12:15.512Z,45.34
2022-11-02T10:15:10.894Z,45.11
2022-11-02T10:17:40.144Z,45.49
2022-11-02T10:20:29.341Z,45.71
2022-11-02T10:23:04.058Z,45.91
2022-11-02T10:25:31.463Z,46.03
2022-11-02T10:28:19.431Z,45.56
2022-11-02T10:30:46.715Z,45.66
2022-11-02T10:33:18.746Z,44.91
2022-11-02T10:36:22.152Z,44.96
2022-11-02T10:39:07.289Z,44.51
2022-11-02T10:42:13.996Z,44.65
2022-11-02T10:45:11.203Z,44.50
2022-11-02T10:47:51.365Z,43.93
2022-11-02T10:50:46.447Z,43.61
2022-11-02T10:53:40.208Z,43.27
2022-11-02T10:56:24.214Z,42.03
2022-11-02T10:59:03.027Z,41.65
2022-11-02T11:01:31.963Z,42.21
2022-11-02T11:04:22.879Z,41.57
2022-11-02T11:06:50.985Z,40.75
2022-11-02T11:09:23.139Z,39.28
2022-11-02T11:11:56.926Z,37.44
2022-11-02T11:20:38.707Z,36.67
2022-11-02T11:23:27.152Z,34.78
2022-11-02T11:26:01.197Z,34.47
2022-11-02T11:28:57.372Z,34.75
2022-11-02T11:31:25.523Z,34.94
2022-11-02T11:33:56.105Z,35.21
2022-11-02T11:36:33.596Z,35.66
2022-11-02T11:39:08.343Z,36.39
2022-11-02T11:41:41.367Z,33.62
2022-11-02T11:44:14.044Z,34.01
2022-11-02T11:46:54.559Z,36.20
2022-11-02T11:49:41.962Z,35.54
2022-11-02T11:52:31.709Z,37.40
2022-11-02T11:55:20.565Z,38.53
2022-11-02T11:58:39.605Z,35.52
2022-11-02T12:01:12.462Z,31.89
2022-11-02T12:04:00.537Z,30.92
2022-11-02T12:06:54.202Z,30.33
2022-11-02T12:09:53.232Z,28.03
2022-11-02T12:12:36.873Z,28.76
2022-11-02T12:15:25.506Z,31.05
2022-11-02T12:18:14.666Z,31.89
2022-11-02T12:21:06.191Z,33.49
2022-11-02T12:24:39.391Z,33.10
2022-11-02T12:27:27.494Z,32.93
2022-11-02T12:30:27.662Z,34.55
2022-11-02T12:33:19.341Z,34.02
2022-11-02T12:36:26.317Z,35.92
2022-11-02T12:39:19.589Z,35.99
2022-11-02T12:42:04.639Z,37.38
2022-11-02T12:45:29.895Z,38.67
2022-11-02T12:48:05.294Z,38.38
2022-11-02T12:50:55.615Z,38.64
2022-11-02T12:53:48.716Z,39.48
2022-11-02T12:56:30.681Z,39.10
2022-11-02T12:58:59.110Z,39.26
2022-11-02T13:01:38.459Z,39.80
2022-11-02T13:04:34.040Z,38.00
2022-11-02T13:07:12.942Z,32.68
2022-11-02T13:09:45.369Z,30.02
2022-11-02T13:12:19.756Z,30.51
2022-11-02T13:14:53.192Z,29.92
2022-11-02T13:17:49.708Z,28.23
2022-11-02T13:20:45.597Z,27.69
2022-11-02T13:23:33.617Z,27.82
2022-11-02T13:26:10.743Z,28.09
2022-11-02T13:28:50.802Z,28.59
2022-11-02T13:31:34.006Z,28.47
2022-11-02T13:34:26.013Z,30.81
2022-11-02T13:36:53.192Z,32.53
2022-11-02T13:39:33.757Z,35.65
2022-11-02T13:42:25.662Z,36.35
2022-11-02T13:45:04.899Z,37.33
2022-11-02T13:48:03.813Z,34.95
2022-11-02T13:50:33.431Z,33.45
2022-11-02T13:53:08.809Z,36.41
2022-11-02T13:55:54.498Z,37.21
2022-11-02T13:58:51.049Z,37.73
2022-11-02T14:01:19.856Z,37.58
2022-11-02T14:04:01.657Z,37.26
2022-11-02T14:06:30.824Z,34.31
2022-11-02T14:09:05.858Z,31.79
2022-11-02T14:11:42.108Z,30.48
2022-11-02T14:14:12.006Z,29.21
2022-11-02T14:16:51.279Z,28.56
2022-11-02T14:19:20.264Z,28.47
2022-11-02T14:22:18.639Z,28.95
2022-11-02T14:24:45.626Z,31.23
2022-11-02T14:27:12.672Z,33.13
2022-11-02T14:29:42.747Z,34.63
2022-11-02T14:32:36.360Z,36.10
2022-11-02T14:35:18.898Z,36.82
2022-11-02T14:38:05.385Z,36.79
2022-11-02T14:41:06.148Z,37.80
2022-11-02T14:44:03.794Z,37.63
2022-11-02T14:46:56.696Z,37.99
2022-11-02T14:49:29.896Z,37.98
2022-11-02T14:52:18.133Z,37.91
2022-11-02T14:55:00.721Z,38.58
2022-11-02T14:57:40.876Z,38.43
2022-11-02T15:00:25.760Z,39.15
2022-11-02T15:02:53.411Z,39.40
2022-11-02T15:05:40.069Z,39.52
2022-11-02T15:08:26.075Z,39.85
2022-11-02T15:10:53.479Z,39.92
2022-11-02T15:13:20.641Z,39.81
2022-11-02T15:15:50.706Z,39.68
2022-11-02T15:18:37.183Z,39.55
2022-11-02T15:21:10.605Z,39.92
2022-11-02T15:24:13.810Z,39.98
2022-11-02T15:26:46.912Z,39.99
2022-11-02T15:29:53.955Z,40.28
2022-11-02T15:32:25.927Z,40.38
2022-11-02T15:34:55.444Z,40.45
2022-11-02T15:37:29.878Z,40.70
2022-11-02T15:40:00.459Z,41.13
2022-11-02T15:42:44.758Z,41.37
2022-11-02T15:45:48.850Z,41.82
2022-11-02T15:48:28.958Z,41.79
2022-11-02T15:51:14.277Z,41.94
2022-11-02T15:54:00.211Z,42.27
2022-11-02T15:56:43.106Z,42.42
2022-11-02T15:59:27.969Z,42.52
2022-11-02T16:02:28.067Z,42.56
2022-11-02T16:05:01.604Z,42.79
2022-11-02T16:07:38.454Z,43.02
2022-11-02T16:10:35.110Z,43.31
2022-11-02T16:13:08.204Z,43.26
2022-11-02T16:15:35.835Z,43.46
2022-11-02T16:18:06.872Z,43.50
2022-11-02T16:20:37.085Z,43.68
2022-11-02T16:23:07.047Z,43.99
2022-11-02T16:25:45.043Z,44.49
2022-11-02T16:28:35.741Z,44.59
2022-11-02T16:31:31.103Z,44.90
2022-11-02T16:34:29.766Z,45.00
2022-11-02T16:36:58.012Z,45.26
2022-11-02T16:39:30.458Z,45.58
2022-11-02T16:41:59.610Z,45.83
2022-11-02T16:44:30.885Z,45.84
2022-11-02T16:47:09.558Z,45.96
2022-11-02T16:49:58.838Z,45.98
2022-11-02T16:52:37.598Z,46.06
2022-11-02T16:55:45.278Z,46.31
2022-11-02T16:58:22.521Z,46.52
2022-11-02T17:00:58.459Z,46.59
2022-11-02T17:03:31.741Z,46.78
2022-11-02T17:06:03.608Z,46.66
2022-11-02T17:08:38.863Z,46.74
2022-11-02T17:11:09.931Z,46.63
2022-11-02T17:13:45.370Z,46.67
2022-11-02T17:16:12.910Z,46.68
2022-11-02T17:18:40.133Z,46.68
2022-11-02T17:21:13.593Z,46.73
2022-11-02T17:23:46.143Z,47.01
2022-11-02T17:26:22.401Z,47.07
2022-11-02T17:28:51.765Z,47.07
2022-11-02T17:31:29.103Z,47.22
2022-11-02T17:34:08.062Z,47.21
2022-11-02T17:36:46.400Z,47.28
2022-11-02T17:39:15.979Z,47.50
2022-11-02T17:42:03.095Z,47.32
2022-11-02T17:44:30.202Z,47.48
2022-11-02T17:46:57.240Z,47.39
2022-11-02T17:49:24.350Z,47.33
2022-11-02T17:51:51.502Z,47.47
2022-11-02T17:54:18.535Z,47.65
2022-11-02T17:56:45.620Z,47.94
2022-11-02T17:59:12.634Z,48.06
2022-11-02T18:01:39.896Z,48.40
2022-11-02T18:04:07.144Z,48.49
2022-11-02T18:06:34.451Z,48.76
2022-11-02T18:09:11.012Z,48.89
2022-11-02T18:11:38.273Z,48.94
2022-11-02T18:14:05.770Z,48.89
2022-11-02T18:16:33.016Z,49.13
2022-11-02T18:19:00.083Z,49.14
2022-11-02T18:21:27.239Z,48.98
2022-11-02T18:23:54.315Z,49.02
2022-11-02T18:26:21.313Z,49.18
2022-11-02T18:28:48.362Z,49.38
2022-11-02T18:31:15.382Z,49.44
2022-11-02T18:33:45.532Z,49.72
2022-11-02T18:36:12.612Z,49.76
2022-11-02T18:38:39.692Z,50.01
2022-11-02T18:41:29.602Z,50.19
2022-11-02T18:44:08.855Z,50.28
2022-11-02T18:46:38.967Z,50.25
2022-11-02T18:49:06.552Z,50.58
2022-11-02T18:51:33.863Z,50.53
2022-11-02T18:54:06.127Z,50.63
2022-11-02T18:56:33.259Z,50.36
2022-11-02T18:59:00.415Z,50.43
2022-11-02T19:01:28.221Z,50.30
2022-11-02T19:03:58.751Z,50.19
2022-11-02T19:06:47.868Z,50.03
2022-11-02T19:09:19.552Z,50.17
2022-11-02T19:12:00.123Z,50.25
2022-11-02T19:14:34.649Z,50.23
2022-11-02T19:17:02.715Z,49.94
2022-11-02T19:19:30.215Z,49.92
2022-11-02T19:21:57.450Z,50.14
2022-11-02T19:24:24.548Z,49.95
2022-11-02T19:26:52.238Z,50.05
2022-11-02T19:29:19.515Z,50.14
2022-11-02T19:31:46.918Z,49.81
2022-11-02T19:34:14.544Z,49.90
2022-11-02T19:36:41.660Z,49.88
2022-11-02T19:39:09.960Z,49.93
2022-11-02T19:41:38.789Z,49.95
2022-11-02T19:44:06.887Z,49.87
2022-11-02T19:46:34.778Z,49.79
2022-11-02T19:49:01.867Z,49.64
2022-11-02T19:51:31.420Z,49.83
2022-11-02T19:54:02.273Z,49.91
2022-11-02T19:56:33.292Z,50.03
2022-11-02T19:59:01.167Z,49.96
2022-11-02T20:01:34.849Z,50.05
2022-11-02T20:04:02.733Z,50.09
2022-11-02T20:06:40.544Z,50.07
2022-11-02T20:09:19.066Z,50.19
2022-11-02T20:11:47.597Z,50.02
2022-11-02T20:14:16.677Z,50.03
2022-11-02T20:16:45.276Z,50.22
2022-11-02T20:19:17.347Z,50.28
2022-11-02T20:21:44.851Z,50.31
2022-11-02T20:24:12.543Z,50.03
2022-11-02T20:26:41.363Z,50.05
2022-11-02T20:29:11.035Z,50.34
2022-11-02T20:31:41.477Z,50.54
2022-11-02T20:34:09.280Z,50.37
2022-11-02T20:36:36.494Z,50.46
2022-11-02T20:39:05.003Z,50.71
2022-11-02T20:41:32.320Z,50.75
2022-11-02T20:43:59.847Z,50.89
2022-11-02T20:46:39.052Z,51.06
2022-11-02T20:49:20.543Z,50.99
2022-11-02T20:51:53.152Z,51.15
2022-11-02T20:54:22.327Z,51.08
2022-11-02T20:56:50.193Z,51.15
2022-11-02T20:59:18.273Z,51.14
2022-11-02T21:01:46.065Z,51.27
2022-11-02T21:04:19.738Z,51.39
2022-11-02T21:06:49.154Z,51.35
2022-11-02T21:09:17.078Z,51.35
2022-11-02T21:12:02.579Z,51.24
2022-11-02T21:14:29.750Z,51.21
2022-11-02T21:16:56.798Z,51.33
2022-11-02T21:19:24.135Z,51.22
2022-11-02T21:21:56.540Z,51.12
2022-11-02T21:24:25.375Z,51.09
2022-11-02T21:26:52.660Z,50.95
2022-11-02T21:29:21.149Z,50.87
2022-11-02T21:31:48.844Z,51.00
2022-11-02T21:34:16.134Z,50.85
2022-11-02T21:36:43.217Z,51.11
2022-11-02T21:39:10.365Z,51.26
2022-11-02T21:41:39.033Z,51.35
2022-11-02T21:44:07.585Z,52.17
2022-11-02T21:46:35.808Z,51.83
2022-11-02T21:49:03.226Z,52.63
2022-11-02T21:51:30.580Z,53.25
2022-11-02T21:53:57.762Z,53.20
2022-11-02T21:56:27.450Z,53.60
2022-11-02T21:58:56.014Z,53.76
2022-11-02T22:01:45.648Z,53.95
2022-11-02T22:04:31.812Z,54.37
2022-11-02T22:07:01.149Z,54.59
2022-11-02T22:09:29.143Z,54.46
2022-11-02T22:12:16.015Z,54.40
2022-11-02T22:14:44.738Z,54.52
2022-11-02T22:17:22.036Z,54.95
2022-11-02T22:19:55.821Z,55.49
2022-11-02T22:22:23.935Z,55.65
2022-11-02T22:24:51.079Z,55.71
2022-11-02T22:27:18.160Z,55.74
2022-11-02T22:29:45.326Z,55.75
2022-11-02T22:32:14.577Z,56.04
2022-11-02T22:34:43.541Z,56.28
2022-11-02T22:37:29.014Z,56.62
2022-11-02T22:39:56.109Z,56.65
2022-11-02T22:42:23.223Z,56.98
2022-11-02T22:44:50.264Z,57.23
2022-11-02T22:47:17.365Z,57.50
2022-11-02T22:49:44.409Z,57.44
2022-11-02T22:52:11.539Z,57.92
2022-11-02T22:54:38.645Z,57.97
2022-11-02T22:57:05.716Z,58.22
2022-11-02T22:59:33.123Z,58.28
2022-11-02T23:02:00.315Z,58.33
2022-11-02T23:04:27.491Z,58.51
2022-11-02T23:06:54.585Z,58.53
2022-11-02T23:09:21.694Z,58.63
2022-11-02T23:11:48.900Z,58.69
2022-11-02T23:14:17.093Z,58.86
2022-11-02T23:16:49.701Z,58.86
2022-11-02T23:19:31.279Z,58.28
2022-11-02T23:22:24.384Z,58.46
2022-11-02T23:25:15.098Z,58.80
2022-11-02T23:28:21.963Z,58.75
2022-11-02T23:31:07.568Z,58.84
2022-11-02T23:33:38.308Z,59.02
2022-11-02T23:36:12.942Z,59.11
2022-11-02T23:39:01.449Z,59.51
2022-11-02T23:41:30.804Z,59.41
2022-11-02T23:44:14.730Z,59.52
2022-11-02T23:46:51.018Z,59.60
2022-11-02T23:49:19.386Z,59.65
2022-11-02T23:52:04.893Z,59.45
2022-11-02T23:54:50.291Z,59.07
2022-11-02T23:57:18.664Z,59.40
2022-11-02T23:59:45.698Z,59.35
